sensor_id;sensor_type;location;lat;lon;timestamp;P1;durP1;ratioP1;P2;durP2;ratioP2
48516;SDS011;34310;51.904;4.256;2023-08-24T00:00:15;3.15;;;2.20;;
48516;SDS011;34310;51.904;4.256;2023-08-24T00:02:41;2.65;;;2.10;;
48516;SDS011;34310;51.904;4.256;2023-08-24T00:05:08;3.00;;;2.33;;
48516;SDS011;34310;51.904;4.256;2023-08-24T00:07:34;2.70;;;2.20;;
48516;SDS011;34310;51.904;4.256;2023-08-24T00:10:01;3.22;;;2.33;;
48516;SDS011;34310;51.904;4.256;2023-08-24T00:12:28;2.25;;;2.05;;
48516;SDS011;34310;51.904;4.256;2023-08-24T00:14:54;2.28;;;2.08;;
48516;SDS011;34310;51.904;4.256;2023-08-24T00:17:21;2.53;;;2.13;;
48516;SDS011;34310;51.904;4.256;2023-08-24T00:19:47;2.22;;;1.90;;
48516;SDS011;34310;51.904;4.256;2023-08-24T00:22:14;2.78;;;1.95;;
48516;SDS011;34310;51.904;4.256;2023-08-24T00:24:40;2.60;;;1.90;;
48516;SDS011;34310;51.904;4.256;2023-08-24T00:27:07;1.88;;;1.70;;
48516;SDS011;34310;51.904;4.256;2023-08-24T00:29:33;4.05;;;1.77;;
48516;SDS011;34310;51.904;4.256;2023-08-24T00:32:00;3.47;;;1.77;;
48516;SDS011;34310;51.904;4.256;2023-08-24T00:34:26;3.78;;;1.90;;
48516;SDS011;34310;51.904;4.256;2023-08-24T00:36:52;1.95;;;1.52;;
48516;SDS011;34310;51.904;4.256;2023-08-24T00:39:19;2.45;;;1.70;;
48516;SDS011;34310;51.904;4.256;2023-08-24T00:41:45;1.92;;;1.70;;
48516;SDS011;34310;51.904;4.256;2023-08-24T00:44:12;1.77;;;1.60;;
48516;SDS011;34310;51.904;4.256;2023-08-24T00:46:38;2.13;;;1.88;;
48516;SDS011;34310;51.904;4.256;2023-08-24T00:49:05;1.98;;;1.70;;
48516;SDS011;34310;51.904;4.256;2023-08-24T00:51:32;2.10;;;1.60;;
48516;SDS011;34310;51.904;4.256;2023-08-24T00:53:58;2.20;;;1.70;;
48516;SDS011;34310;51.904;4.256;2023-08-24T00:56:24;2.53;;;1.42;;
48516;SDS011;34310;51.904;4.256;2023-08-24T00:58:51;1.60;;;1.50;;
48516;SDS011;34310;51.904;4.256;2023-08-24T01:01:20;3.90;;;1.58;;
48516;SDS011;34310;51.904;4.256;2023-08-24T01:03:46;1.88;;;1.50;;
48516;SDS011;34310;51.904;4.256;2023-08-24T01:06:13;2.42;;;1.65;;
48516;SDS011;34310;51.904;4.256;2023-08-24T01:08:39;2.22;;;1.50;;
48516;SDS011;34310;51.904;4.256;2023-08-24T01:11:09;2.75;;;1.73;;
48516;SDS011;34310;51.904;4.256;2023-08-24T01:16:46;1.63;;;1.40;;
48516;SDS011;34310;51.904;4.256;2023-08-24T01:19:37;2.08;;;1.50;;
48516;SDS011;34310;51.904;4.256;2023-08-24T01:27:27;2.50;;;1.40;;
48516;SDS011;34310;51.904;4.256;2023-08-24T01:29:55;2.03;;;1.30;;
48516;SDS011;34310;51.904;4.256;2023-08-24T01:32:22;1.85;;;1.55;;
48516;SDS011;34310;51.904;4.256;2023-08-24T01:34:49;1.95;;;1.40;;
48516;SDS011;34310;51.904;4.256;2023-08-24T01:37:15;1.70;;;1.30;;
48516;SDS011;34310;51.904;4.256;2023-08-24T01:39:42;2.38;;;1.30;;
48516;SDS011;34310;51.904;4.256;2023-08-24T01:42:20;1.67;;;1.40;;
48516;SDS011;34310;51.904;4.256;2023-08-24T01:44:52;2.05;;;1.50;;
48516;SDS011;34310;51.904;4.256;2023-08-24T01:47:22;2.33;;;1.30;;
48516;SDS011;34310;51.904;4.256;2023-08-24T01:49:51;1.60;;;1.20;;
48516;SDS011;34310;51.904;4.256;2023-08-24T01:52:17;2.47;;;1.40;;
48516;SDS011;34310;51.904;4.256;2023-08-24T01:54:45;2.28;;;1.20;;
48516;SDS011;34310;51.904;4.256;2023-08-24T01:57:11;2.00;;;1.30;;
48516;SDS011;34310;51.904;4.256;2023-08-24T01:59:38;2.35;;;1.50;;
48516;SDS011;34310;51.904;4.256;2023-08-24T02:02:04;2.60;;;1.30;;
48516;SDS011;34310;51.904;4.256;2023-08-24T02:04:31;3.28;;;1.27;;
48516;SDS011;34310;51.904;4.256;2023-08-24T02:06:57;2.55;;;1.45;;
48516;SDS011;34310;51.904;4.256;2023-08-24T02:09:24;2.13;;;1.40;;
48516;SDS011;34310;51.904;4.256;2023-08-24T02:11:50;3.22;;;1.58;;
48516;SDS011;34310;51.904;4.256;2023-08-24T02:14:17;1.60;;;1.25;;
48516;SDS011;34310;51.904;4.256;2023-08-24T02:16:43;1.58;;;1.30;;
48516;SDS011;34310;51.904;4.256;2023-08-24T02:19:10;2.45;;;1.50;;
48516;SDS011;34310;51.904;4.256;2023-08-24T02:21:37;2.25;;;1.30;;
48516;SDS011;34310;51.904;4.256;2023-08-24T02:24:04;1.55;;;1.40;;
48516;SDS011;34310;51.904;4.256;2023-08-24T02:26:31;2.35;;;1.40;;
48516;SDS011;34310;51.904;4.256;2023-08-24T02:28:57;1.55;;;1.40;;
48516;SDS011;34310;51.904;4.256;2023-08-24T02:31:25;1.80;;;1.20;;
48516;SDS011;34310;51.904;4.256;2023-08-24T02:33:51;1.80;;;1.35;;
48516;SDS011;34310;51.904;4.256;2023-08-24T02:36:18;1.88;;;1.45;;
48516;SDS011;34310;51.904;4.256;2023-08-24T02:38:44;1.95;;;1.30;;
48516;SDS011;34310;51.904;4.256;2023-08-24T02:41:11;2.20;;;1.83;;
48516;SDS011;34310;51.904;4.256;2023-08-24T02:43:37;2.67;;;1.40;;
48516;SDS011;34310;51.904;4.256;2023-08-24T02:46:06;1.70;;;1.55;;
48516;SDS011;34310;51.904;4.256;2023-08-24T02:48:34;2.08;;;1.33;;
48516;SDS011;34310;51.904;4.256;2023-08-24T02:51:01;1.48;;;1.20;;
48516;SDS011;34310;51.904;4.256;2023-08-24T02:53:29;2.08;;;1.52;;
48516;SDS011;34310;51.904;4.256;2023-08-24T02:55:57;1.40;;;1.27;;
48516;SDS011;34310;51.904;4.256;2023-08-24T02:58:23;1.92;;;1.35;;
48516;SDS011;34310;51.904;4.256;2023-08-24T03:00:50;1.58;;;1.30;;
48516;SDS011;34310;51.904;4.256;2023-08-24T03:03:16;1.30;;;1.20;;
48516;SDS011;34310;51.904;4.256;2023-08-24T03:05:59;2.47;;;1.33;;
48516;SDS011;34310;51.904;4.256;2023-08-24T03:08:27;3.10;;;1.38;;
48516;SDS011;34310;51.904;4.256;2023-08-24T03:10:54;2.28;;;1.48;;
48516;SDS011;34310;51.904;4.256;2023-08-24T03:13:21;3.00;;;1.42;;
48516;SDS011;34310;51.904;4.256;2023-08-24T03:15:47;1.77;;;1.30;;
48516;SDS011;34310;51.904;4.256;2023-08-24T03:18:15;1.27;;;1.17;;
48516;SDS011;34310;51.904;4.256;2023-08-24T03:20:43;1.67;;;1.35;;
48516;SDS011;34310;51.904;4.256;2023-08-24T03:23:10;1.15;;;1.05;;
48516;SDS011;34310;51.904;4.256;2023-08-24T03:25:38;1.63;;;1.20;;
48516;SDS011;34310;51.904;4.256;2023-08-24T03:28:06;2.03;;;1.30;;
48516;SDS011;34310;51.904;4.256;2023-08-24T03:30:38;1.60;;;1.30;;
48516;SDS011;34310;51.904;4.256;2023-08-24T03:33:06;2.08;;;1.40;;
48516;SDS011;34310;51.904;4.256;2023-08-24T03:35:32;2.58;;;1.50;;
48516;SDS011;34310;51.904;4.256;2023-08-24T03:37:59;1.42;;;1.23;;
48516;SDS011;34310;51.904;4.256;2023-08-24T03:40:26;1.83;;;1.20;;
48516;SDS011;34310;51.904;4.256;2023-08-24T03:42:53;2.00;;;1.27;;
48516;SDS011;34310;51.904;4.256;2023-08-24T03:45:20;2.55;;;1.35;;
48516;SDS011;34310;51.904;4.256;2023-08-24T03:47:47;1.52;;;1.27;;
48516;SDS011;34310;51.904;4.256;2023-08-24T03:50:14;1.55;;;1.30;;
48516;SDS011;34310;51.904;4.256;2023-08-24T03:52:41;1.20;;;1.10;;
48516;SDS011;34310;51.904;4.256;2023-08-24T03:55:07;1.95;;;1.20;;
48516;SDS011;34310;51.904;4.256;2023-08-24T03:57:34;1.75;;;1.42;;
48516;SDS011;34310;51.904;4.256;2023-08-24T04:00:01;2.00;;;1.20;;
48516;SDS011;34310;51.904;4.256;2023-08-24T04:02:28;1.52;;;1.30;;
48516;SDS011;34310;51.904;4.256;2023-08-24T04:04:57;1.48;;;1.20;;
48516;SDS011;34310;51.904;4.256;2023-08-24T04:07:24;1.45;;;1.20;;
48516;SDS011;34310;51.904;4.256;2023-08-24T04:09:51;1.80;;;1.40;;
48516;SDS011;34310;51.904;4.256;2023-08-24T04:12:17;1.80;;;1.48;;
48516;SDS011;34310;51.904;4.256;2023-08-24T04:14:44;1.20;;;1.10;;
48516;SDS011;34310;51.904;4.256;2023-08-24T04:17:10;3.53;;;1.30;;
48516;SDS011;34310;51.904;4.256;2023-08-24T04:19:40;1.50;;;1.40;;
48516;SDS011;34310;51.904;4.256;2023-08-24T04:22:06;2.72;;;1.45;;
48516;SDS011;34310;51.904;4.256;2023-08-24T04:24:33;1.65;;;1.30;;
48516;SDS011;34310;51.904;4.256;2023-08-24T04:26:59;1.33;;;1.20;;
48516;SDS011;34310;51.904;4.256;2023-08-24T04:29:26;1.58;;;1.17;;
48516;SDS011;34310;51.904;4.256;2023-08-24T04:31:52;1.83;;;1.40;;
48516;SDS011;34310;51.904;4.256;2023-08-24T04:34:18;1.55;;;1.17;;
48516;SDS011;34310;51.904;4.256;2023-08-24T04:36:45;1.25;;;1.15;;
48516;SDS011;34310;51.904;4.256;2023-08-24T04:39:11;2.45;;;1.50;;
48516;SDS011;34310;51.904;4.256;2023-08-24T04:41:38;1.90;;;1.40;;
48516;SDS011;34310;51.904;4.256;2023-08-24T04:44:04;3.63;;;1.45;;
48516;SDS011;34310;51.904;4.256;2023-08-24T04:46:31;2.33;;;1.40;;
48516;SDS011;34310;51.904;4.256;2023-08-24T04:48:57;1.80;;;1.40;;
48516;SDS011;34310;51.904;4.256;2023-08-24T04:51:24;1.67;;;1.30;;
48516;SDS011;34310;51.904;4.256;2023-08-24T04:53:50;2.60;;;1.40;;
48516;SDS011;34310;51.904;4.256;2023-08-24T04:56:17;4.20;;;1.50;;
48516;SDS011;34310;51.904;4.256;2023-08-24T04:58:51;1.67;;;1.50;;
48516;SDS011;34310;51.904;4.256;2023-08-24T05:01:21;1.77;;;1.25;;
48516;SDS011;34310;51.904;4.256;2023-08-24T05:03:48;1.38;;;1.25;;
48516;SDS011;34310;51.904;4.256;2023-08-24T05:06:14;2.13;;;1.38;;
48516;SDS011;34310;51.904;4.256;2023-08-24T05:08:41;1.80;;;1.40;;
48516;SDS011;34310;51.904;4.256;2023-08-24T05:11:14;1.90;;;1.65;;
48516;SDS011;34310;51.904;4.256;2023-08-24T05:13:43;2.05;;;1.52;;
48516;SDS011;34310;51.904;4.256;2023-08-24T05:16:10;1.90;;;1.40;;
48516;SDS011;34310;51.904;4.256;2023-08-24T05:18:37;1.35;;;1.25;;
48516;SDS011;34310;51.904;4.256;2023-08-24T05:21:03;2.63;;;1.70;;
48516;SDS011;34310;51.904;4.256;2023-08-24T05:23:31;1.67;;;1.40;;
48516;SDS011;34310;51.904;4.256;2023-08-24T05:25:59;2.17;;;1.40;;
48516;SDS011;34310;51.904;4.256;2023-08-24T05:28:27;1.92;;;1.50;;
48516;SDS011;34310;51.904;4.256;2023-08-24T05:30:55;1.50;;;1.35;;
48516;SDS011;34310;51.904;4.256;2023-08-24T05:33:22;1.83;;;1.70;;
48516;SDS011;34310;51.904;4.256;2023-08-24T05:35:50;2.30;;;1.60;;
48516;SDS011;34310;51.904;4.256;2023-08-24T05:38:17;2.67;;;1.50;;
48516;SDS011;34310;51.904;4.256;2023-08-24T05:40:47;2.40;;;1.90;;
48516;SDS011;34310;51.904;4.256;2023-08-24T05:43:14;1.98;;;1.50;;
48516;SDS011;34310;51.904;4.256;2023-08-24T05:45:40;3.05;;;1.63;;
48516;SDS011;34310;51.904;4.256;2023-08-24T05:48:07;1.77;;;1.50;;
48516;SDS011;34310;51.904;4.256;2023-08-24T05:50:33;1.60;;;1.50;;
48516;SDS011;34310;51.904;4.256;2023-08-24T05:53:00;2.55;;;1.90;;
48516;SDS011;34310;51.904;4.256;2023-08-24T05:55:26;2.03;;;1.67;;
48516;SDS011;34310;51.904;4.256;2023-08-24T05:57:53;2.28;;;1.30;;
48516;SDS011;34310;51.904;4.256;2023-08-24T06:00:19;2.22;;;1.73;;
48516;SDS011;34310;51.904;4.256;2023-08-24T06:02:46;4.13;;;1.52;;
48516;SDS011;34310;51.904;4.256;2023-08-24T06:05:12;1.80;;;1.60;;
48516;SDS011;34310;51.904;4.256;2023-08-24T06:07:39;4.18;;;1.80;;
48516;SDS011;34310;51.904;4.256;2023-08-24T06:10:06;1.70;;;1.60;;
48516;SDS011;34310;51.904;4.256;2023-08-24T06:12:33;2.00;;;1.80;;
48516;SDS011;34310;51.904;4.256;2023-08-24T06:14:59;2.53;;;1.70;;
48516;SDS011;34310;51.904;4.256;2023-08-24T06:17:25;4.43;;;1.60;;
48516;SDS011;34310;51.904;4.256;2023-08-24T06:19:52;1.70;;;1.60;;
48516;SDS011;34310;51.904;4.256;2023-08-24T06:22:18;3.25;;;1.88;;
48516;SDS011;34310;51.904;4.256;2023-08-24T06:24:45;2.90;;;1.85;;
48516;SDS011;34310;51.904;4.256;2023-08-24T06:27:11;4.05;;;1.92;;
48516;SDS011;34310;51.904;4.256;2023-08-24T06:29:40;2.20;;;1.75;;
48516;SDS011;34310;51.904;4.256;2023-08-24T06:32:09;2.00;;;1.80;;
48516;SDS011;34310;51.904;4.256;2023-08-24T06:34:35;3.40;;;1.90;;
48516;SDS011;34310;51.904;4.256;2023-08-24T06:37:02;2.45;;;2.00;;
48516;SDS011;34310;51.904;4.256;2023-08-24T06:39:28;2.78;;;2.10;;
48516;SDS011;34310;51.904;4.256;2023-08-24T06:41:55;2.58;;;1.90;;
48516;SDS011;34310;51.904;4.256;2023-08-24T06:44:21;2.20;;;1.67;;
48516;SDS011;34310;51.904;4.256;2023-08-24T06:46:48;2.55;;;2.03;;
48516;SDS011;34310;51.904;4.256;2023-08-24T06:49:14;2.03;;;1.90;;
48516;SDS011;34310;51.904;4.256;2023-08-24T06:51:41;1.83;;;1.60;;
48516;SDS011;34310;51.904;4.256;2023-08-24T06:54:07;3.00;;;1.70;;
48516;SDS011;34310;51.904;4.256;2023-08-24T06:56:34;3.03;;;2.10;;
48516;SDS011;34310;51.904;4.256;2023-08-24T06:59:00;2.25;;;1.63;;
48516;SDS011;34310;51.904;4.256;2023-08-24T07:01:27;2.28;;;1.83;;
48516;SDS011;34310;51.904;4.256;2023-08-24T07:03:53;3.08;;;1.85;;
48516;SDS011;34310;51.904;4.256;2023-08-24T07:06:20;1.90;;;1.80;;
48516;SDS011;34310;51.904;4.256;2023-08-24T07:08:46;2.90;;;1.75;;
48516;SDS011;34310;51.904;4.256;2023-08-24T07:11:13;3.08;;;2.35;;
48516;SDS011;34310;51.904;4.256;2023-08-24T07:13:39;11.05;;;4.63;;
48516;SDS011;34310;51.904;4.256;2023-08-24T07:16:06;9.43;;;5.68;;
48516;SDS011;34310;51.904;4.256;2023-08-24T07:18:32;12.18;;;6.03;;
48516;SDS011;34310;51.904;4.256;2023-08-24T07:20:59;9.13;;;6.15;;
48516;SDS011;34310;51.904;4.256;2023-08-24T07:23:25;10.93;;;6.32;;
48516;SDS011;34310;51.904;4.256;2023-08-24T07:25:52;11.98;;;6.15;;
48516;SDS011;34310;51.904;4.256;2023-08-24T07:28:18;9.32;;;6.38;;
48516;SDS011;34310;51.904;4.256;2023-08-24T07:30:45;10.02;;;6.30;;
48516;SDS011;34310;51.904;4.256;2023-08-24T07:33:11;10.82;;;6.78;;
48516;SDS011;34310;51.904;4.256;2023-08-24T07:35:38;9.25;;;6.95;;
48516;SDS011;34310;51.904;4.256;2023-08-24T07:38:04;11.65;;;7.20;;
48516;SDS011;34310;51.904;4.256;2023-08-24T07:40:31;11.70;;;7.55;;
48516;SDS011;34310;51.904;4.256;2023-08-24T07:42:57;10.00;;;6.53;;
48516;SDS011;34310;51.904;4.256;2023-08-24T07:45:24;12.23;;;6.90;;
48516;SDS011;34310;51.904;4.256;2023-08-24T07:47:50;11.18;;;7.95;;
48516;SDS011;34310;51.904;4.256;2023-08-24T07:50:17;9.95;;;6.32;;
48516;SDS011;34310;51.904;4.256;2023-08-24T07:52:44;10.52;;;6.93;;
48516;SDS011;34310;51.904;4.256;2023-08-24T07:55:10;11.52;;;7.30;;
48516;SDS011;34310;51.904;4.256;2023-08-24T07:57:37;8.98;;;6.63;;
48516;SDS011;34310;51.904;4.256;2023-08-24T08:00:04;10.52;;;6.75;;
48516;SDS011;34310;51.904;4.256;2023-08-24T08:02:34;10.85;;;7.18;;
48516;SDS011;34310;51.904;4.256;2023-08-24T08:05:01;10.70;;;6.95;;
48516;SDS011;34310;51.904;4.256;2023-08-24T08:07:28;14.23;;;7.50;;
48516;SDS011;34310;51.904;4.256;2023-08-24T08:09:55;13.48;;;7.13;;
48516;SDS011;34310;51.904;4.256;2023-08-24T08:12:21;10.90;;;7.43;;
48516;SDS011;34310;51.904;4.256;2023-08-24T08:14:48;12.55;;;7.72;;
48516;SDS011;34310;51.904;4.256;2023-08-24T08:17:14;13.23;;;7.38;;
48516;SDS011;34310;51.904;4.256;2023-08-24T08:19:40;16.05;;;7.63;;
48516;SDS011;34310;51.904;4.256;2023-08-24T08:22:07;14.90;;;7.30;;
48516;SDS011;34310;51.904;4.256;2023-08-24T08:24:36;12.00;;;6.90;;
48516;SDS011;34310;51.904;4.256;2023-08-24T08:27:02;11.98;;;6.90;;
48516;SDS011;34310;51.904;4.256;2023-08-24T08:29:29;10.13;;;6.60;;
48516;SDS011;34310;51.904;4.256;2023-08-24T08:31:55;9.27;;;6.85;;
48516;SDS011;34310;51.904;4.256;2023-08-24T08:34:22;11.35;;;7.57;;
48516;SDS011;34310;51.904;4.256;2023-08-24T08:36:49;13.45;;;6.80;;
48516;SDS011;34310;51.904;4.256;2023-08-24T08:39:15;10.38;;;7.10;;
48516;SDS011;34310;51.904;4.256;2023-08-24T08:41:42;11.35;;;6.78;;
48516;SDS011;34310;51.904;4.256;2023-08-24T08:44:11;10.02;;;7.00;;
48516;SDS011;34310;51.904;4.256;2023-08-24T08:46:40;12.05;;;7.28;;
48516;SDS011;34310;51.904;4.256;2023-08-24T08:49:08;12.00;;;6.65;;
48516;SDS011;34310;51.904;4.256;2023-08-24T08:51:38;10.48;;;6.57;;
48516;SDS011;34310;51.904;4.256;2023-08-24T08:54:05;10.45;;;6.90;;
48516;SDS011;34310;51.904;4.256;2023-08-24T08:56:32;13.80;;;7.38;;
48516;SDS011;34310;51.904;4.256;2023-08-24T08:58:59;14.27;;;6.90;;
48516;SDS011;34310;51.904;4.256;2023-08-24T09:01:28;9.48;;;6.88;;
48516;SDS011;34310;51.904;4.256;2023-08-24T09:03:54;10.75;;;6.30;;
48516;SDS011;34310;51.904;4.256;2023-08-24T09:06:23;11.50;;;6.75;;
48516;SDS011;34310;51.904;4.256;2023-08-24T09:08:49;14.43;;;6.63;;
48516;SDS011;34310;51.904;4.256;2023-08-24T09:11:17;9.60;;;6.18;;
48516;SDS011;34310;51.904;4.256;2023-08-24T09:13:44;26.60;;;7.18;;
48516;SDS011;34310;51.904;4.256;2023-08-24T09:16:11;14.07;;;6.80;;
48516;SDS011;34310;51.904;4.256;2023-08-24T09:18:38;16.38;;;6.15;;
48516;SDS011;34310;51.904;4.256;2023-08-24T09:21:09;11.52;;;6.32;;
48516;SDS011;34310;51.904;4.256;2023-08-24T09:23:38;9.25;;;5.63;;
48516;SDS011;34310;51.904;4.256;2023-08-24T09:26:09;11.75;;;5.68;;
48516;SDS011;34310;51.904;4.256;2023-08-24T09:28:35;10.80;;;5.50;;
48516;SDS011;34310;51.904;4.256;2023-08-24T09:31:02;9.52;;;5.30;;
48516;SDS011;34310;51.904;4.256;2023-08-24T09:33:29;13.07;;;5.47;;
48516;SDS011;34310;51.904;4.256;2023-08-24T09:35:55;8.13;;;5.45;;
48516;SDS011;34310;51.904;4.256;2023-08-24T09:38:23;7.55;;;4.38;;
48516;SDS011;34310;51.904;4.256;2023-08-24T09:40:50;9.50;;;4.20;;
48516;SDS011;34310;51.904;4.256;2023-08-24T09:43:18;6.45;;;4.03;;
48516;SDS011;34310;51.904;4.256;2023-08-24T09:45:51;6.50;;;4.30;;
48516;SDS011;34310;51.904;4.256;2023-08-24T09:48:19;6.10;;;3.78;;
48516;SDS011;34310;51.904;4.256;2023-08-24T09:50:47;9.82;;;4.05;;
48516;SDS011;34310;51.904;4.256;2023-08-24T09:53:18;7.22;;;3.58;;
48516;SDS011;34310;51.904;4.256;2023-08-24T09:55:55;6.38;;;3.67;;
48516;SDS011;34310;51.904;4.256;2023-08-24T09:58:27;5.70;;;3.58;;
48516;SDS011;34310;51.904;4.256;2023-08-24T10:00:55;5.28;;;4.00;;
48516;SDS011;34310;51.904;4.256;2023-08-24T10:03:25;8.63;;;4.45;;
48516;SDS011;34310;51.904;4.256;2023-08-24T10:05:54;10.32;;;5.50;;
48516;SDS011;34310;51.904;4.256;2023-08-24T10:08:32;8.68;;;4.35;;
48516;SDS011;34310;51.904;4.256;2023-08-24T10:11:02;14.13;;;4.70;;
48516;SDS011;34310;51.904;4.256;2023-08-24T10:13:35;8.80;;;4.28;;
48516;SDS011;34310;51.904;4.256;2023-08-24T10:16:19;9.70;;;5.15;;
48516;SDS011;34310;51.904;4.256;2023-08-24T10:18:47;11.65;;;5.13;;
48516;SDS011;34310;51.904;4.256;2023-08-24T10:21:14;9.30;;;5.35;;
48516;SDS011;34310;51.904;4.256;2023-08-24T10:23:42;9.23;;;5.50;;
48516;SDS011;34310;51.904;4.256;2023-08-24T10:26:09;8.95;;;5.65;;
48516;SDS011;34310;51.904;4.256;2023-08-24T10:28:37;8.98;;;5.72;;
48516;SDS011;34310;51.904;4.256;2023-08-24T10:31:04;10.95;;;6.13;;
48516;SDS011;34310;51.904;4.256;2023-08-24T10:33:32;12.50;;;5.80;;
48516;SDS011;34310;51.904;4.256;2023-08-24T10:35:59;9.68;;;5.82;;
48516;SDS011;34310;51.904;4.256;2023-08-24T10:38:26;8.70;;;5.65;;
48516;SDS011;34310;51.904;4.256;2023-08-24T10:40:54;10.18;;;5.55;;
48516;SDS011;34310;51.904;4.256;2023-08-24T10:43:28;8.73;;;5.85;;
48516;SDS011;34310;51.904;4.256;2023-08-24T10:46:00;7.35;;;5.40;;
48516;SDS011;34310;51.904;4.256;2023-08-24T10:48:28;9.57;;;5.82;;
48516;SDS011;34310;51.904;4.256;2023-08-24T10:51:18;10.18;;;5.55;;
48516;SDS011;34310;51.904;4.256;2023-08-24T10:53:46;7.75;;;5.63;;
48516;SDS011;34310;51.904;4.256;2023-08-24T10:56:14;8.60;;;4.95;;
48516;SDS011;34310;51.904;4.256;2023-08-24T10:58:43;9.48;;;5.32;;
48516;SDS011;34310;51.904;4.256;2023-08-24T11:01:19;10.30;;;5.55;;
48516;SDS011;34310;51.904;4.256;2023-08-24T11:03:50;7.55;;;5.47;;
48516;SDS011;34310;51.904;4.256;2023-08-24T11:06:21;7.88;;;5.10;;
48516;SDS011;34310;51.904;4.256;2023-08-24T11:08:49;7.88;;;5.00;;
48516;SDS011;34310;51.904;4.256;2023-08-24T11:11:31;10.23;;;5.07;;
48516;SDS011;34310;51.904;4.256;2023-08-24T11:16:44;8.88;;;4.90;;
48516;SDS011;34310;51.904;4.256;2023-08-24T11:19:12;6.38;;;4.60;;
48516;SDS011;34310;51.904;4.256;2023-08-24T11:21:40;6.85;;;4.00;;
48516;SDS011;34310;51.904;4.256;2023-08-24T11:24:07;6.15;;;4.53;;
48516;SDS011;34310;51.904;4.256;2023-08-24T11:26:39;7.53;;;4.45;;
48516;SDS011;34310;51.904;4.256;2023-08-24T11:29:06;5.57;;;4.28;;
48516;SDS011;34310;51.904;4.256;2023-08-24T11:31:33;5.65;;;4.18;;
48516;SDS011;34310;51.904;4.256;2023-08-24T11:34:00;7.78;;;4.18;;
48516;SDS011;34310;51.904;4.256;2023-08-24T11:36:27;6.75;;;4.30;;
48516;SDS011;34310;51.904;4.256;2023-08-24T11:38:55;7.03;;;4.10;;
48516;SDS011;34310;51.904;4.256;2023-08-24T11:41:23;4.97;;;3.45;;
48516;SDS011;34310;51.904;4.256;2023-08-24T11:43:55;6.07;;;3.58;;
48516;SDS011;34310;51.904;4.256;2023-08-24T11:46:29;6.03;;;3.75;;
48516;SDS011;34310;51.904;4.256;2023-08-24T11:48:56;5.97;;;3.63;;
48516;SDS011;34310;51.904;4.256;2023-08-24T11:51:24;5.97;;;3.60;;
48516;SDS011;34310;51.904;4.256;2023-08-24T11:54:08;5.63;;;3.40;;
48516;SDS011;34310;51.904;4.256;2023-08-24T11:56:43;6.13;;;3.67;;
48516;SDS011;34310;51.904;4.256;2023-08-24T11:59:11;6.85;;;3.78;;
48516;SDS011;34310;51.904;4.256;2023-08-24T12:01:39;6.82;;;4.00;;
48516;SDS011;34310;51.904;4.256;2023-08-24T12:04:07;7.63;;;4.13;;
48516;SDS011;34310;51.904;4.256;2023-08-24T12:06:34;8.32;;;4.30;;
48516;SDS011;34310;51.904;4.256;2023-08-24T12:09:04;10.85;;;4.57;;
48516;SDS011;34310;51.904;4.256;2023-08-24T12:11:34;8.88;;;5.20;;
48516;SDS011;34310;51.904;4.256;2023-08-24T12:14:04;9.63;;;5.28;;
48516;SDS011;34310;51.904;4.256;2023-08-24T12:16:32;16.50;;;6.07;;
48516;SDS011;34310;51.904;4.256;2023-08-24T12:18:59;11.27;;;5.78;;
48516;SDS011;34310;51.904;4.256;2023-08-24T12:21:27;14.50;;;6.43;;
48516;SDS011;34310;51.904;4.256;2023-08-24T12:24:00;14.52;;;6.03;;
48516;SDS011;34310;51.904;4.256;2023-08-24T12:26:28;14.98;;;6.35;;
48516;SDS011;34310;51.904;4.256;2023-08-24T12:28:55;12.00;;;6.28;;
48516;SDS011;34310;51.904;4.256;2023-08-24T12:31:26;12.35;;;6.20;;
48516;SDS011;34310;51.904;4.256;2023-08-24T12:34:03;11.73;;;5.90;;
48516;SDS011;34310;51.904;4.256;2023-08-24T12:36:35;13.57;;;6.20;;
48516;SDS011;34310;51.904;4.256;2023-08-24T12:39:03;9.40;;;5.65;;
48516;SDS011;34310;51.904;4.256;2023-08-24T12:41:31;12.40;;;6.55;;
48516;SDS011;34310;51.904;4.256;2023-08-24T12:43:57;11.88;;;6.82;;
48516;SDS011;34310;51.904;4.256;2023-08-24T12:46:24;12.02;;;6.75;;
48516;SDS011;34310;51.904;4.256;2023-08-24T12:48:51;10.63;;;6.95;;
48516;SDS011;34310;51.904;4.256;2023-08-24T12:51:21;11.75;;;6.95;;
48516;SDS011;34310;51.904;4.256;2023-08-24T12:53:48;11.00;;;6.75;;
48516;SDS011;34310;51.904;4.256;2023-08-24T12:56:14;9.68;;;6.80;;
48516;SDS011;34310;51.904;4.256;2023-08-24T12:58:41;11.68;;;6.65;;
48516;SDS011;34310;51.904;4.256;2023-08-24T13:01:07;12.50;;;6.75;;
48516;SDS011;34310;51.904;4.256;2023-08-24T13:03:34;15.60;;;8.23;;
48516;SDS011;34310;51.904;4.256;2023-08-24T13:06:01;12.88;;;7.95;;
48516;SDS011;34310;51.904;4.256;2023-08-24T13:08:47;10.20;;;7.72;;
48516;SDS011;34310;51.904;4.256;2023-08-24T13:11:14;12.65;;;8.23;;
48516;SDS011;34310;51.904;4.256;2023-08-24T13:13:40;12.45;;;8.65;;
48516;SDS011;34310;51.904;4.256;2023-08-24T13:16:07;11.43;;;8.85;;
48516;SDS011;34310;51.904;4.256;2023-08-24T13:18:33;11.40;;;8.80;;
48516;SDS011;34310;51.904;4.256;2023-08-24T13:21:00;12.32;;;9.10;;
48516;SDS011;34310;51.904;4.256;2023-08-24T13:23:26;11.90;;;9.10;;
48516;SDS011;34310;51.904;4.256;2023-08-24T13:25:53;11.80;;;9.27;;
48516;SDS011;34310;51.904;4.256;2023-08-24T13:28:19;11.07;;;9.18;;
48516;SDS011;34310;51.904;4.256;2023-08-24T13:30:46;14.60;;;10.80;;
48516;SDS011;34310;51.904;4.256;2023-08-24T13:33:12;12.02;;;9.90;;
48516;SDS011;34310;51.904;4.256;2023-08-24T13:35:39;12.85;;;11.15;;
48516;SDS011;34310;51.904;4.256;2023-08-24T13:38:05;13.70;;;11.55;;
48516;SDS011;34310;51.904;4.256;2023-08-24T13:40:32;15.18;;;11.45;;
48516;SDS011;34310;51.904;4.256;2023-08-24T13:42:58;14.13;;;10.85;;
48516;SDS011;34310;51.904;4.256;2023-08-24T13:45:25;14.68;;;11.73;;
48516;SDS011;34310;51.904;4.256;2023-08-24T13:47:52;14.05;;;11.85;;
48516;SDS011;34310;51.904;4.256;2023-08-24T13:50:18;14.73;;;12.10;;
48516;SDS011;34310;51.904;4.256;2023-08-24T13:52:45;14.90;;;12.40;;
48516;SDS011;34310;51.904;4.256;2023-08-24T13:55:11;15.20;;;13.38;;
48516;SDS011;34310;51.904;4.256;2023-08-24T13:57:39;15.18;;;12.57;;
48516;SDS011;34310;51.904;4.256;2023-08-24T14:00:05;16.08;;;13.40;;
48516;SDS011;34310;51.904;4.256;2023-08-24T14:02:32;14.93;;;13.32;;
48516;SDS011;34310;51.904;4.256;2023-08-24T14:04:59;15.23;;;13.13;;
48516;SDS011;34310;51.904;4.256;2023-08-24T14:07:25;15.90;;;13.98;;
48516;SDS011;34310;51.904;4.256;2023-08-24T14:09:52;16.33;;;13.52;;
48516;SDS011;34310;51.904;4.256;2023-08-24T14:12:31;16.85;;;14.27;;
48516;SDS011;34310;51.904;4.256;2023-08-24T14:14:59;16.52;;;14.13;;
48516;SDS011;34310;51.904;4.256;2023-08-24T14:17:26;16.63;;;14.27;;
48516;SDS011;34310;51.904;4.256;2023-08-24T14:19:53;17.83;;;14.35;;
48516;SDS011;34310;51.904;4.256;2023-08-24T14:22:19;17.08;;;14.48;;
48516;SDS011;34310;51.904;4.256;2023-08-24T14:24:46;16.88;;;14.50;;
48516;SDS011;34310;51.904;4.256;2023-08-24T14:27:12;16.10;;;14.40;;
48516;SDS011;34310;51.904;4.256;2023-08-24T14:29:38;16.85;;;14.77;;
48516;SDS011;34310;51.904;4.256;2023-08-24T14:32:05;16.30;;;14.50;;
48516;SDS011;34310;51.904;4.256;2023-08-24T14:34:31;17.42;;;14.57;;
48516;SDS011;34310;51.904;4.256;2023-08-24T14:36:58;16.30;;;14.40;;
48516;SDS011;34310;51.904;4.256;2023-08-24T14:39:25;16.35;;;14.48;;
48516;SDS011;34310;51.904;4.256;2023-08-24T14:41:51;16.55;;;14.52;;
48516;SDS011;34310;51.904;4.256;2023-08-24T14:44:17;15.80;;;14.15;;
48516;SDS011;34310;51.904;4.256;2023-08-24T14:46:44;16.65;;;14.85;;
48516;SDS011;34310;51.904;4.256;2023-08-24T14:49:11;16.52;;;14.70;;
48516;SDS011;34310;51.904;4.256;2023-08-24T14:51:37;21.75;;;15.13;;
48516;SDS011;34310;51.904;4.256;2023-08-24T14:54:03;17.70;;;14.80;;
48516;SDS011;34310;51.904;4.256;2023-08-24T14:56:30;17.17;;;14.27;;